createdAt,value
2018-11-20T00:03:06.640Z,4.15
2018-11-20T00:06:19.626Z,5.20
2018-11-20T00:09:41.318Z,5.42
2018-11-20T00:12:54.310Z,5.20
2018-11-20T00:16:06.006Z,4.55
2018-11-20T00:19:17.570Z,6.87
2018-11-20T00:22:31.526Z,5.58
2018-11-20T00:25:40.549Z,4.70
2018-11-20T00:28:48.268Z,5.83
2018-11-20T00:32:00.164Z,4.40
2018-11-20T00:35:21.689Z,6.17
2018-11-20T00:38:30.888Z,5.80
2018-11-20T00:41:45.897Z,5.00
2018-11-20T00:44:55.234Z,5.97
2018-11-20T00:48:04.157Z,5.97
2018-11-20T00:51:13.393Z,6.50
2018-11-20T00:54:40.548Z,5.58
2018-11-20T00:57:49.883Z,4.80
2018-11-20T01:01:14.791Z,5.20
2018-11-20T01:04:27.197Z,5.58
2018-11-20T01:07:34.658Z,6.72
2018-11-20T01:10:43.204Z,6.55
2018-11-20T01:13:54.934Z,5.58
2018-11-20T01:17:07.514Z,6.60
2018-11-20T01:20:22.799Z,5.65
2018-11-20T01:23:35.374Z,5.72
2018-11-20T01:26:59.377Z,5.40
2018-11-20T01:30:14.465Z,5.37
2018-11-20T01:33:32.601Z,6.47
2018-11-20T01:36:39.978Z,5.83
2018-11-20T01:39:48.928Z,5.97
2018-11-20T01:43:04.383Z,5.70
2018-11-20T01:46:22.037Z,5.20
2018-11-20T01:49:29.354Z,5.12
2018-11-20T01:52:36.383Z,5.25
2018-11-20T01:55:50.962Z,4.72
2018-11-20T01:59:06.145Z,4.22
2018-11-20T02:02:15.591Z,6.45
2018-11-20T02:05:30.237Z,6.62
2018-11-20T02:08:36.430Z,5.78
2018-11-20T02:11:57.048Z,4.95
2018-11-20T02:15:04.738Z,5.00
2018-11-20T02:18:13.748Z,5.35
2018-11-20T02:21:38.541Z,6.35
2018-11-20T02:24:56.275Z,4.78
2018-11-20T02:28:05.408Z,4.35
2018-11-20T02:31:13.827Z,4.22
2018-11-20T02:34:25.792Z,6.40
2018-11-20T02:37:33.389Z,4.25
2018-11-20T02:40:41.424Z,4.85
2018-11-20T02:43:50.865Z,5.47
2018-11-20T02:47:15.157Z,5.78
2018-11-20T02:50:26.951Z,6.42
2018-11-20T02:53:34.729Z,5.12
2018-11-20T02:56:59.039Z,6.35
2018-11-20T03:00:08.280Z,6.35
2018-11-20T03:03:20.177Z,4.85
2018-11-20T03:06:40.934Z,4.85
2018-11-20T03:09:50.221Z,5.05
2018-11-20T03:13:11.634Z,7.62
2018-11-20T03:16:32.403Z,6.08
2018-11-20T03:19:57.958Z,6.28
2018-11-20T03:23:10.162Z,7.30
2018-11-20T03:26:22.262Z,6.83
2018-11-20T03:29:50.402Z,6.12
2018-11-20T03:33:11.249Z,6.30
2018-11-20T03:36:23.126Z,7.25
2018-11-20T03:39:32.501Z,6.25
2018-11-20T03:42:47.026Z,6.97
2018-11-20T03:46:11.317Z,6.65
2018-11-20T03:49:23.378Z,7.78
2018-11-20T03:52:32.326Z,8.43
2018-11-20T03:55:46.796Z,7.67
2018-11-20T03:58:56.260Z,8.13
2018-11-20T04:02:14.800Z,7.45
2018-11-20T04:05:31.012Z,7.97
2018-11-20T04:08:40.350Z,8.25
2018-11-20T04:11:58.193Z,9.95
2018-11-20T04:15:06.713Z,6.40
2018-11-20T04:18:29.045Z,6.37
2018-11-20T04:21:53.010Z,12.20
2018-11-20T04:25:11.067Z,8.93
2018-11-20T04:28:20.058Z,6.95
2018-11-20T04:31:36.723Z,6.58
2018-11-20T04:34:48.794Z,7.55
2018-11-20T04:37:57.703Z,7.67
2018-11-20T04:41:22.084Z,9.68
2018-11-20T04:44:30.528Z,7.92
2018-11-20T04:47:58.731Z,7.72
2018-11-20T04:51:07.956Z,9.50
2018-11-20T04:54:26.101Z,8.98
2018-11-20T04:57:38.361Z,8.73
2018-11-20T05:00:47.263Z,8.35
2018-11-20T05:03:54.756Z,6.70
2018-11-20T05:07:10.380Z,6.37
2018-11-20T05:10:18.551Z,7.20
2018-11-20T05:13:30.445Z,6.87
2018-11-20T05:16:42.315Z,8.48
2018-11-20T05:19:50.326Z,6.97
2018-11-20T05:23:02.857Z,8.53
2018-11-20T05:26:21.800Z,7.45
2018-11-20T05:29:34.487Z,8.05
2018-11-20T05:32:30.338Z,9.00
2018-11-20T05:35:39.367Z,8.45
2018-11-20T05:38:46.965Z,12.33
2018-11-20T05:41:59.884Z,8.43
2018-11-20T05:45:08.733Z,5.90
2018-11-20T05:48:05.457Z,8.18
2018-11-20T05:51:14.687Z,8.58
2018-11-20T05:54:30.170Z,10.20
2018-11-20T05:57:39.176Z,6.70
2018-11-20T06:00:59.709Z,9.28
2018-11-20T06:04:08.508Z,11.33
2018-11-20T06:07:30.663Z,11.10
2018-11-20T06:10:38.974Z,7.97
2018-11-20T06:14:00.884Z,8.50
2018-11-20T06:17:16.800Z,10.20
2018-11-20T06:20:35.043Z,6.70
2018-11-20T06:23:42.902Z,7.85
2018-11-20T06:26:50.942Z,8.83
2018-11-20T06:30:18.998Z,10.28
2018-11-20T06:33:26.563Z,10.00
2018-11-20T06:36:46.273Z,11.60
2018-11-20T06:39:53.612Z,9.58
2018-11-20T06:43:08.569Z,10.72
2018-11-20T06:46:24.562Z,8.78
2018-11-20T06:49:43.015Z,10.90
2018-11-20T06:52:56.427Z,9.93
2018-11-20T06:56:23.791Z,8.20
2018-11-20T06:59:48.301Z,7.85
2018-11-20T07:02:57.838Z,6.53
2018-11-20T07:06:08.389Z,7.80
2018-11-20T07:09:15.900Z,8.10
2018-11-20T07:12:23.835Z,9.53
2018-11-20T07:15:31.952Z,10.40
2018-11-20T07:18:40.044Z,11.22
2018-11-20T07:21:58.442Z,10.70
2018-11-20T07:28:41.213Z,10.98
2018-11-20T07:31:39.220Z,7.58
2018-11-20T07:34:48.834Z,9.35
2018-11-20T07:38:01.240Z,9.30
2018-11-20T07:41:10.266Z,8.63
2018-11-20T07:44:19.476Z,12.43
2018-11-20T07:47:34.267Z,11.65
2018-11-20T07:50:46.267Z,9.80
2018-11-20T07:53:55.266Z,8.33
2018-11-20T07:57:11.194Z,8.23
2018-11-20T08:00:23.600Z,10.75
2018-11-20T08:03:32.389Z,8.65
2018-11-20T08:06:41.764Z,10.60
2018-11-20T08:10:09.233Z,12.88
2018-11-20T08:13:32.285Z,7.87
2018-11-20T08:16:45.436Z,11.75
2018-11-20T08:19:57.753Z,12.65
2018-11-20T08:23:19.349Z,8.63
2018-11-20T08:26:32.529Z,11.80
2018-11-20T08:29:44.880Z,8.20
2018-11-20T08:32:53.599Z,7.08
2018-11-20T08:36:21.146Z,7.15
2018-11-20T08:39:36.338Z,8.03
2018-11-20T08:42:52.334Z,9.13
2018-11-20T08:46:17.439Z,9.53
2018-11-20T08:49:45.112Z,7.53
2018-11-20T08:52:52.690Z,7.42
2018-11-20T08:56:00.203Z,7.97
2018-11-20T08:59:22.029Z,12.68
2018-11-20T09:02:31.412Z,10.53
2018-11-20T09:05:52.071Z,11.45
2018-11-20T09:09:10.321Z,8.13
2018-11-20T09:12:18.019Z,12.23
2018-11-20T09:15:27.248Z,8.18
2018-11-20T09:18:34.845Z,9.20
2018-11-20T09:21:57.395Z,11.35
2018-11-20T09:25:12.468Z,7.53
2018-11-20T09:28:39.722Z,10.35
2018-11-20T09:32:01.164Z,8.50
2018-11-20T09:35:09.573Z,9.00
2018-11-20T09:38:27.273Z,8.88
2018-11-20T09:41:36.321Z,9.38
2018-11-20T09:45:03.383Z,8.35
2018-11-20T09:48:12.513Z,12.58
2018-11-20T09:51:24.688Z,9.10
2018-11-20T09:54:36.614Z,12.47
2018-11-20T09:58:02.028Z,10.55
2018-11-20T10:01:11.367Z,10.48
2018-11-20T10:04:21.018Z,8.28
2018-11-20T10:07:36.081Z,8.05
2018-11-20T10:10:44.815Z,8.65
2018-11-20T10:13:53.207Z,8.60
2018-11-20T10:17:11.671Z,7.78
2018-11-20T10:20:30.330Z,8.73
2018-11-20T10:23:51.577Z,9.28
2018-11-20T10:27:09.685Z,13.88
2018-11-20T10:30:17.691Z,9.48
2018-11-20T10:33:29.691Z,20.68
2018-11-20T10:36:37.577Z,8.90
2018-11-20T10:39:58.301Z,10.95
2018-11-20T10:43:07.957Z,9.35
2018-11-20T10:46:21.218Z,10.98
2018-11-20T10:49:39.010Z,8.88
2018-11-20T10:52:50.842Z,8.08
2018-11-20T10:56:09.339Z,8.65
2018-11-20T10:59:18.493Z,8.65
2018-11-20T11:02:26.300Z,13.22
2018-11-20T11:05:33.975Z,10.35
2018-11-20T11:08:41.998Z,9.10
2018-11-20T11:11:54.153Z,13.00
2018-11-20T11:15:13.553Z,9.60
2018-11-20T11:18:29.810Z,9.65
2018-11-20T11:21:51.482Z,8.63
2018-11-20T11:25:00.917Z,8.55
2018-11-20T11:28:25.009Z,10.65
2018-11-20T11:31:37.334Z,12.20
2018-11-20T11:34:46.469Z,8.83
2018-11-20T11:38:08.367Z,9.13
2018-11-20T11:41:23.266Z,7.92
2018-11-20T11:44:32.603Z,7.83
2018-11-20T11:47:42.069Z,9.95
2018-11-20T11:50:51.075Z,11.38
2018-11-20T11:54:03.051Z,9.63
2018-11-20T11:57:29.102Z,8.10
2018-11-20T12:00:48.645Z,11.38
2018-11-20T12:04:16.231Z,8.70
2018-11-20T12:07:24.151Z,7.47
2018-11-20T12:10:36.291Z,12.50
2018-11-20T12:13:54.297Z,8.58
2018-11-20T12:17:05.858Z,9.30
2018-11-20T12:20:21.364Z,11.90
2018-11-20T12:23:29.162Z,7.67
2018-11-20T12:26:37.068Z,7.03
2018-11-20T12:29:49.275Z,10.03
2018-11-20T12:33:13.664Z,7.95
2018-11-20T12:36:32.841Z,8.13
2018-11-20T12:39:53.022Z,7.10
2018-11-20T12:43:01.035Z,8.40
2018-11-20T12:46:35.253Z,8.05
2018-11-20T12:49:56.594Z,7.47
2018-11-20T12:53:04.464Z,11.30
2018-11-20T12:56:11.810Z,8.65
2018-11-20T12:59:23.763Z,8.70
2018-11-20T13:02:38.222Z,11.63
2018-11-20T13:05:47.454Z,13.28
2018-11-20T13:09:06.223Z,7.27
2018-11-20T13:12:13.786Z,10.68
2018-11-20T13:15:32.058Z,10.30
2018-11-20T13:18:54.559Z,13.90
2018-11-20T13:22:09.842Z,5.45
2018-11-20T13:25:30.910Z,6.72
2018-11-20T13:28:38.797Z,8.85
2018-11-20T13:31:57.923Z,4.65
2018-11-20T13:35:07.234Z,16.02
2018-11-20T13:38:31.331Z,13.65
2018-11-20T13:41:41.850Z,7.00
2018-11-20T13:44:54.362Z,14.98
2018-11-20T13:48:04.214Z,9.88
2018-11-20T13:51:18.963Z,7.75
2018-11-20T13:54:43.425Z,10.05
2018-11-20T13:57:51.455Z,14.38
2018-11-20T14:00:59.558Z,17.10
2018-11-20T14:04:08.337Z,8.00
2018-11-20T14:07:26.368Z,9.05
2018-11-20T14:10:41.419Z,9.90
2018-11-20T14:13:53.829Z,14.68
2018-11-20T14:17:01.307Z,16.23
2018-11-20T14:20:22.440Z,15.08
2018-11-20T14:23:31.541Z,11.10
2018-11-20T14:26:37.863Z,16.50
2018-11-20T14:29:45.834Z,13.28
2018-11-20T14:32:54.158Z,15.05
2018-11-20T14:36:03.355Z,16.10
2018-11-20T14:39:12.527Z,13.83
2018-11-20T14:42:24.896Z,15.58
2018-11-20T14:45:46.532Z,12.35
2018-11-20T14:48:58.152Z,18.52
2018-11-20T14:52:06.365Z,18.98
2018-11-20T14:55:14.490Z,15.55
2018-11-20T14:58:22.439Z,15.72
2018-11-20T15:01:49.460Z,13.38
2018-11-20T15:05:04.089Z,13.30
2018-11-20T15:08:16.086Z,8.98
2018-11-20T15:11:37.300Z,13.00
2018-11-20T15:14:54.383Z,10.68
2018-11-20T15:18:12.606Z,18.30
2018-11-20T15:21:34.089Z,9.40
2018-11-20T15:24:46.192Z,17.40
2018-11-20T15:27:54.573Z,16.60
2018-11-20T15:31:06.613Z,12.75
2018-11-20T15:34:16.357Z,9.85
2018-11-20T15:37:33.135Z,11.05
2018-11-20T15:40:47.919Z,16.52
2018-11-20T15:44:15.706Z,10.50
2018-11-20T15:47:27.506Z,13.98
2018-11-20T15:50:46.051Z,14.10
2018-11-20T15:54:07.679Z,13.38
2018-11-20T15:57:32.454Z,16.25
2018-11-20T16:00:42.019Z,9.10
2018-11-20T16:04:00.438Z,11.22
2018-11-20T16:07:15.627Z,11.60
2018-11-20T16:10:37.067Z,15.98
2018-11-20T16:13:46.947Z,10.35
2018-11-20T16:16:56.421Z,9.60
2018-11-20T16:20:04.081Z,12.23
2018-11-20T16:23:31.717Z,15.58
2018-11-20T16:26:44.040Z,18.40
2018-11-20T16:29:51.596Z,15.88
2018-11-20T16:32:59.226Z,12.70
2018-11-20T16:36:08.437Z,18.70
2018-11-20T16:39:16.370Z,15.50
2018-11-20T16:42:32.239Z,16.53
2018-11-20T16:45:40.567Z,17.20
2018-11-20T16:48:56.867Z,17.10
2018-11-20T16:52:12.247Z,12.23
2018-11-20T16:55:33.435Z,14.75
2018-11-20T16:58:41.294Z,10.55
2018-11-20T17:01:58.076Z,15.13
2018-11-20T17:05:19.499Z,15.58
2018-11-20T17:08:31.912Z,17.35
2018-11-20T17:11:46.980Z,13.72
2018-11-20T17:14:57.242Z,15.23
2018-11-20T17:18:05.146Z,12.00
2018-11-20T17:21:14.286Z,10.53
2018-11-20T17:24:22.582Z,8.75
2018-11-20T17:27:38.174Z,10.60
2018-11-20T17:30:51.914Z,9.43
2018-11-20T17:34:09.957Z,9.43
2018-11-20T17:37:31.598Z,10.65
2018-11-20T17:40:53.404Z,13.72
2018-11-20T17:44:01.295Z,14.35
2018-11-20T17:47:13.233Z,11.78
2018-11-20T17:50:34.311Z,10.38
2018-11-20T17:53:43.317Z,17.85
2018-11-20T17:56:58.635Z,14.28
2018-11-20T18:00:10.761Z,15.45
2018-11-20T18:03:27.750Z,14.45
2018-11-20T18:06:32.014Z,19.98
2018-11-20T18:09:56.160Z,15.98
2018-11-20T18:13:08.425Z,16.23
2018-11-20T18:16:16.385Z,19.12
2018-11-20T18:19:43.093Z,17.50
2018-11-20T18:23:01.285Z,10.13
2018-11-20T18:26:09.138Z,10.10
2018-11-20T18:29:26.975Z,9.45
2018-11-20T18:32:54.425Z,18.80
2018-11-20T18:36:18.979Z,13.68
2018-11-20T18:39:40.171Z,12.40
2018-11-20T18:43:44.514Z,20.72
2018-11-20T18:46:52.550Z,17.60
2018-11-20T18:50:07.129Z,16.97
2018-11-20T18:53:18.152Z,9.80
2018-11-20T18:56:32.487Z,10.28
2018-11-20T18:59:39.069Z,9.78
2018-11-20T19:03:05.010Z,15.72
2018-11-20T19:06:13.096Z,12.58
2018-11-20T19:09:21.579Z,9.60
2018-11-20T19:12:41.935Z,13.50
2018-11-20T19:15:53.030Z,11.68
2018-11-20T19:19:13.141Z,11.70
2018-11-20T19:22:29.930Z,9.50
2018-11-20T19:25:36.541Z,8.40
2018-11-20T19:28:57.110Z,11.60
2018-11-20T19:31:57.741Z,8.83
2018-11-20T19:35:08.359Z,16.82
2018-11-20T19:38:15.140Z,12.45
2018-11-20T19:41:36.675Z,12.13
2018-11-20T19:44:43.330Z,17.25
2018-11-20T19:47:50.157Z,18.55
2018-11-20T19:50:57.875Z,11.93
2018-11-20T19:54:07.914Z,8.58
2018-11-20T19:57:27.880Z,14.28
2018-11-20T20:00:48.081Z,16.77
2018-11-20T20:03:56.323Z,10.03
2018-11-20T20:07:07.323Z,16.73
2018-11-20T20:10:30.968Z,10.68
2018-11-20T20:13:42.048Z,18.35
2018-11-20T20:17:05.699Z,12.03
2018-11-20T20:20:19.686Z,20.37
2018-11-20T20:23:39.603Z,10.18
2018-11-20T20:26:46.318Z,18.30
2018-11-20T20:29:56.995Z,18.85
2018-11-20T20:33:05.100Z,19.77
2018-11-20T20:36:13.250Z,11.25
2018-11-20T20:39:39.539Z,15.08
2018-11-20T20:42:46.082Z,10.98
2018-11-20T20:45:53.085Z,19.12
2018-11-20T20:49:01.199Z,13.80
2018-11-20T20:52:04.327Z,15.75
2018-11-20T20:55:13.314Z,10.50
2018-11-20T20:58:21.398Z,10.80
2018-11-20T21:01:29.260Z,16.12
2018-11-20T21:04:43.569Z,18.02
2018-11-20T21:08:06.938Z,19.05
2018-11-20T21:11:20.987Z,18.12
2018-11-20T21:14:27.934Z,13.83
2018-11-20T21:17:46.561Z,11.10
2018-11-20T21:20:53.306Z,12.65
2018-11-20T21:24:03.967Z,11.10
2018-11-20T21:27:24.552Z,12.03
2018-11-20T21:30:44.947Z,13.83
2018-11-20T21:33:54.134Z,16.00
2018-11-20T21:37:05.051Z,12.10
2018-11-20T21:40:28.502Z,14.90
2018-11-20T21:43:48.312Z,9.45
2018-11-20T21:47:03.199Z,12.58
2018-11-20T21:50:29.388Z,16.60
2018-11-20T21:53:37.431Z,14.23
2018-11-20T21:56:44.288Z,10.45
2018-11-20T21:59:53.614Z,18.30
2018-11-20T22:03:00.052Z,10.72
2018-11-20T22:06:11.114Z,11.28
2018-11-20T22:09:28.338Z,10.25
2018-11-20T22:12:48.364Z,19.70
2018-11-20T22:15:55.137Z,17.10
2018-11-20T22:19:03.222Z,17.05
2018-11-20T22:22:29.153Z,17.95
2018-11-20T22:25:55.968Z,10.53
2018-11-20T22:29:12.665Z,11.60
2018-11-20T22:32:19.685Z,11.95
2018-11-20T22:35:26.558Z,9.30
2018-11-20T22:38:52.532Z,18.45
2018-11-20T22:42:06.501Z,9.30
2018-11-20T22:45:13.047Z,12.10
2018-11-20T22:48:38.986Z,16.50
2018-11-20T22:51:47.031Z,16.27
2018-11-20T22:55:01.094Z,12.18
2018-11-20T22:58:09.047Z,16.80
2018-11-20T23:01:17.136Z,8.55
2018-11-20T23:04:23.788Z,10.18
2018-11-20T23:07:30.688Z,11.30
2018-11-20T23:10:37.235Z,16.62
2018-11-20T23:13:41.657Z,16.50
2018-11-20T23:16:46.041Z,13.85
2018-11-20T23:19:50.710Z,10.23
2018-11-20T23:22:55.417Z,14.70
2018-11-20T23:26:00.619Z,16.60
2018-11-20T23:29:04.986Z,10.70
2018-11-20T23:32:09.622Z,18.12
2018-11-20T23:35:14.706Z,10.43
2018-11-20T23:38:19.245Z,14.40
2018-11-20T23:41:23.740Z,9.50
2018-11-20T23:44:28.111Z,10.20
2018-11-20T23:47:32.684Z,10.00
2018-11-20T23:50:37.034Z,13.83
2018-11-20T23:53:42.346Z,10.80
2018-11-20T23:56:46.698Z,12.50
2018-11-20T23:59:51.312Z,19.17
